sensor_id;sensor_type;location;lat;lon;timestamp;P1;durP1;ratioP1;P2;durP2;ratioP2
37449;SDS011;23309;52.582;13.406;2022-11-20T00:00:48;10.30;;;7.80;;
37449;SDS011;23309;52.582;13.406;2022-11-20T00:03:14;15.73;;;6.97;;
37449;SDS011;23309;52.582;13.406;2022-11-20T00:05:42;9.57;;;6.65;;
37449;SDS011;23309;52.582;13.406;2022-11-20T00:08:08;12.20;;;7.90;;
37449;SDS011;23309;52.582;13.406;2022-11-20T00:10:35;14.27;;;7.28;;
37449;SDS011;23309;52.582;13.406;2022-11-20T00:13:07;9.52;;;6.40;;
37449;SDS011;23309;52.582;13.406;2022-11-20T00:15:34;9.20;;;7.43;;
37449;SDS011;23309;52.582;13.406;2022-11-20T00:18:01;9.90;;;7.22;;
37449;SDS011;23309;52.582;13.406;2022-11-20T00:20:28;8.43;;;7.20;;
37449;SDS011;23309;52.582;13.406;2022-11-20T00:22:54;10.40;;;7.18;;
37449;SDS011;23309;52.582;13.406;2022-11-20T00:25:20;9.15;;;7.25;;
37449;SDS011;23309;52.582;13.406;2022-11-20T00:27:48;9.32;;;7.00;;
37449;SDS011;23309;52.582;13.406;2022-11-20T00:30:18;9.45;;;6.25;;
37449;SDS011;23309;52.582;13.406;2022-11-20T00:32:45;10.95;;;6.43;;
37449;SDS011;23309;52.582;13.406;2022-11-20T00:35:11;9.55;;;6.60;;
37449;SDS011;23309;52.582;13.406;2022-11-20T00:37:37;10.30;;;7.00;;
37449;SDS011;23309;52.582;13.406;2022-11-20T00:40:04;9.20;;;7.57;;
37449;SDS011;23309;52.582;13.406;2022-11-20T00:42:36;8.23;;;6.40;;
37449;SDS011;23309;52.582;13.406;2022-11-20T00:45:10;8.60;;;6.75;;
37449;SDS011;23309;52.582;13.406;2022-11-20T00:47:40;10.85;;;6.68;;
37449;SDS011;23309;52.582;13.406;2022-11-20T00:50:09;8.25;;;6.38;;
37449;SDS011;23309;52.582;13.406;2022-11-20T00:52:35;10.20;;;7.10;;
37449;SDS011;23309;52.582;13.406;2022-11-20T00:55:05;11.27;;;7.13;;
37449;SDS011;23309;52.582;13.406;2022-11-20T00:57:34;9.60;;;7.10;;
37449;SDS011;23309;52.582;13.406;2022-11-20T01:00:02;8.98;;;7.00;;
37449;SDS011;23309;52.582;13.406;2022-11-20T01:02:29;9.85;;;6.85;;
37449;SDS011;23309;52.582;13.406;2022-11-20T01:05:03;8.23;;;6.68;;
37449;SDS011;23309;52.582;13.406;2022-11-20T01:07:29;8.35;;;6.50;;
37449;SDS011;23309;52.582;13.406;2022-11-20T01:09:58;8.35;;;6.45;;
37449;SDS011;23309;52.582;13.406;2022-11-20T01:12:26;7.97;;;6.53;;
37449;SDS011;23309;52.582;13.406;2022-11-20T01:14:52;9.65;;;7.10;;
37449;SDS011;23309;52.582;13.406;2022-11-20T01:17:20;9.43;;;6.80;;
37449;SDS011;23309;52.582;13.406;2022-11-20T01:19:49;9.35;;;7.10;;
37449;SDS011;23309;52.582;13.406;2022-11-20T01:22:19;9.48;;;6.47;;
37449;SDS011;23309;52.582;13.406;2022-11-20T01:24:45;10.32;;;6.45;;
37449;SDS011;23309;52.582;13.406;2022-11-20T01:27:12;8.50;;;6.68;;
37449;SDS011;23309;52.582;13.406;2022-11-20T01:29:38;8.77;;;6.57;;
37449;SDS011;23309;52.582;13.406;2022-11-20T01:32:04;9.43;;;6.95;;
37449;SDS011;23309;52.582;13.406;2022-11-20T01:34:30;8.60;;;6.87;;
37449;SDS011;23309;52.582;13.406;2022-11-20T01:36:56;9.25;;;7.22;;
37449;SDS011;23309;52.582;13.406;2022-11-20T01:39:25;10.35;;;7.25;;
37449;SDS011;23309;52.582;13.406;2022-11-20T01:41:52;9.13;;;6.55;;
37449;SDS011;23309;52.582;13.406;2022-11-20T01:44:22;8.85;;;7.15;;
37449;SDS011;23309;52.582;13.406;2022-11-20T01:47:28;10.13;;;7.18;;
37449;SDS011;23309;52.582;13.406;2022-11-20T01:50:01;8.68;;;6.13;;
37449;SDS011;23309;52.582;13.406;2022-11-20T01:52:36;9.00;;;6.83;;
37449;SDS011;23309;52.582;13.406;2022-11-20T01:55:11;9.77;;;7.18;;
37449;SDS011;23309;52.582;13.406;2022-11-20T01:57:42;10.23;;;6.80;;
37449;SDS011;23309;52.582;13.406;2022-11-20T02:00:11;9.98;;;7.07;;
37449;SDS011;23309;52.582;13.406;2022-11-20T02:02:41;9.77;;;7.23;;
37449;SDS011;23309;52.582;13.406;2022-11-20T02:05:16;9.85;;;7.30;;
37449;SDS011;23309;52.582;13.406;2022-11-20T02:07:54;8.13;;;7.07;;
37449;SDS011;23309;52.582;13.406;2022-11-20T02:10:25;9.73;;;6.77;;
37449;SDS011;23309;52.582;13.406;2022-11-20T02:12:52;9.00;;;7.30;;
37449;SDS011;23309;52.582;13.406;2022-11-20T02:15:20;9.73;;;7.18;;
37449;SDS011;23309;52.582;13.406;2022-11-20T02:17:47;9.20;;;6.80;;
37449;SDS011;23309;52.582;13.406;2022-11-20T02:20:13;8.90;;;6.57;;
37449;SDS011;23309;52.582;13.406;2022-11-20T02:22:41;10.07;;;7.07;;
37449;SDS011;23309;52.582;13.406;2022-11-20T02:25:22;9.00;;;7.60;;
37449;SDS011;23309;52.582;13.406;2022-11-20T02:27:53;10.20;;;7.03;;
37449;SDS011;23309;52.582;13.406;2022-11-20T02:30:19;11.18;;;6.82;;
37449;SDS011;23309;52.582;13.406;2022-11-20T02:32:48;8.77;;;6.78;;
37449;SDS011;23309;52.582;13.406;2022-11-20T02:38:09;10.50;;;8.07;;
37449;SDS011;23309;52.582;13.406;2022-11-20T02:40:38;8.93;;;6.82;;
37449;SDS011;23309;52.582;13.406;2022-11-20T02:43:05;8.77;;;7.25;;
37449;SDS011;23309;52.582;13.406;2022-11-20T02:45:32;9.90;;;7.10;;
37449;SDS011;23309;52.582;13.406;2022-11-20T02:47:59;10.75;;;7.53;;
37449;SDS011;23309;52.582;13.406;2022-11-20T02:50:25;10.85;;;7.85;;
37449;SDS011;23309;52.582;13.406;2022-11-20T02:52:51;10.15;;;7.70;;
37449;SDS011;23309;52.582;13.406;2022-11-20T02:55:18;10.20;;;7.60;;
37449;SDS011;23309;52.582;13.406;2022-11-20T02:57:46;10.27;;;7.88;;
37449;SDS011;23309;52.582;13.406;2022-11-20T03:00:15;9.85;;;7.63;;
37449;SDS011;23309;52.582;13.406;2022-11-20T03:02:41;10.90;;;7.75;;
37449;SDS011;23309;52.582;13.406;2022-11-20T03:05:08;9.50;;;7.63;;
37449;SDS011;23309;52.582;13.406;2022-11-20T03:07:34;9.75;;;7.38;;
37449;SDS011;23309;52.582;13.406;2022-11-20T03:10:00;11.65;;;8.75;;
37449;SDS011;23309;52.582;13.406;2022-11-20T03:12:27;12.30;;;8.17;;
37449;SDS011;23309;52.582;13.406;2022-11-20T03:14:58;9.55;;;7.25;;
37449;SDS011;23309;52.582;13.406;2022-11-20T03:17:24;11.10;;;7.80;;
37449;SDS011;23309;52.582;13.406;2022-11-20T03:19:51;11.17;;;8.30;;
37449;SDS011;23309;52.582;13.406;2022-11-20T03:22:17;9.63;;;7.37;;
37449;SDS011;23309;52.582;13.406;2022-11-20T03:24:46;10.70;;;8.00;;
37449;SDS011;23309;52.582;13.406;2022-11-20T03:27:12;11.85;;;8.13;;
37449;SDS011;23309;52.582;13.406;2022-11-20T03:29:40;13.00;;;8.45;;
37449;SDS011;23309;52.582;13.406;2022-11-20T03:32:09;11.75;;;8.35;;
37449;SDS011;23309;52.582;13.406;2022-11-20T03:34:37;11.02;;;8.10;;
37449;SDS011;23309;52.582;13.406;2022-11-20T03:37:03;11.50;;;8.18;;
37449;SDS011;23309;52.582;13.406;2022-11-20T03:39:29;9.17;;;7.30;;
37449;SDS011;23309;52.582;13.406;2022-11-20T03:41:57;13.45;;;7.85;;
37449;SDS011;23309;52.582;13.406;2022-11-20T03:44:23;9.10;;;7.40;;
37449;SDS011;23309;52.582;13.406;2022-11-20T03:46:49;11.70;;;7.60;;
37449;SDS011;23309;52.582;13.406;2022-11-20T03:49:18;11.00;;;7.78;;
37449;SDS011;23309;52.582;13.406;2022-11-20T03:51:44;12.60;;;8.20;;
37449;SDS011;23309;52.582;13.406;2022-11-20T03:54:11;12.68;;;8.50;;
37449;SDS011;23309;52.582;13.406;2022-11-20T03:56:38;11.10;;;8.23;;
37449;SDS011;23309;52.582;13.406;2022-11-20T03:59:04;11.13;;;8.45;;
37449;SDS011;23309;52.582;13.406;2022-11-20T04:01:31;10.53;;;8.57;;
37449;SDS011;23309;52.582;13.406;2022-11-20T04:03:59;13.73;;;9.13;;
37449;SDS011;23309;52.582;13.406;2022-11-20T04:06:29;10.73;;;8.30;;
37449;SDS011;23309;52.582;13.406;2022-11-20T04:09:03;9.63;;;8.27;;
37449;SDS011;23309;52.582;13.406;2022-11-20T04:11:32;10.68;;;8.40;;
37449;SDS011;23309;52.582;13.406;2022-11-20T04:14:01;11.15;;;8.07;;
37449;SDS011;23309;52.582;13.406;2022-11-20T04:16:29;12.57;;;8.57;;
37449;SDS011;23309;52.582;13.406;2022-11-20T04:18:59;14.25;;;8.70;;
37449;SDS011;23309;52.582;13.406;2022-11-20T04:21:31;11.50;;;8.40;;
37449;SDS011;23309;52.582;13.406;2022-11-20T04:24:01;13.18;;;9.05;;
37449;SDS011;23309;52.582;13.406;2022-11-20T04:26:29;10.95;;;8.25;;
37449;SDS011;23309;52.582;13.406;2022-11-20T04:28:59;12.38;;;8.70;;
37449;SDS011;23309;52.582;13.406;2022-11-20T04:31:28;12.10;;;8.77;;
37449;SDS011;23309;52.582;13.406;2022-11-20T04:33:58;12.47;;;9.20;;
37449;SDS011;23309;52.582;13.406;2022-11-20T04:36:26;11.47;;;9.30;;
37449;SDS011;23309;52.582;13.406;2022-11-20T04:39:00;10.88;;;8.45;;
37449;SDS011;23309;52.582;13.406;2022-11-20T04:41:29;12.43;;;8.52;;
37449;SDS011;23309;52.582;13.406;2022-11-20T04:43:59;11.90;;;8.82;;
37449;SDS011;23309;52.582;13.406;2022-11-20T04:46:29;11.25;;;8.77;;
37449;SDS011;23309;52.582;13.406;2022-11-20T04:48:58;10.23;;;8.23;;
37449;SDS011;23309;52.582;13.406;2022-11-20T04:51:25;12.48;;;8.80;;
37449;SDS011;23309;52.582;13.406;2022-11-20T04:53:51;11.80;;;8.25;;
37449;SDS011;23309;52.582;13.406;2022-11-20T04:56:20;11.15;;;8.60;;
37449;SDS011;23309;52.582;13.406;2022-11-20T04:58:46;12.77;;;9.07;;
37449;SDS011;23309;52.582;13.406;2022-11-20T05:01:14;11.68;;;8.90;;
37449;SDS011;23309;52.582;13.406;2022-11-20T05:03:50;11.27;;;8.50;;
37449;SDS011;23309;52.582;13.406;2022-11-20T05:06:21;13.82;;;9.20;;
37449;SDS011;23309;52.582;13.406;2022-11-20T05:08:48;12.77;;;9.00;;
37449;SDS011;23309;52.582;13.406;2022-11-20T05:11:15;13.35;;;9.13;;
37449;SDS011;23309;52.582;13.406;2022-11-20T05:13:47;12.73;;;8.75;;
37449;SDS011;23309;52.582;13.406;2022-11-20T05:16:16;11.73;;;7.80;;
37449;SDS011;23309;52.582;13.406;2022-11-20T05:18:47;14.27;;;8.50;;
37449;SDS011;23309;52.582;13.406;2022-11-20T05:21:14;10.88;;;7.90;;
37449;SDS011;23309;52.582;13.406;2022-11-20T05:23:42;13.02;;;8.80;;
37449;SDS011;23309;52.582;13.406;2022-11-20T05:26:12;11.15;;;8.57;;
37449;SDS011;23309;52.582;13.406;2022-11-20T05:28:44;10.80;;;8.23;;
37449;SDS011;23309;52.582;13.406;2022-11-20T05:31:11;11.10;;;9.03;;
37449;SDS011;23309;52.582;13.406;2022-11-20T05:33:42;12.30;;;9.10;;
37449;SDS011;23309;52.582;13.406;2022-11-20T05:36:12;11.85;;;8.70;;
37449;SDS011;23309;52.582;13.406;2022-11-20T05:38:39;10.20;;;8.27;;
37449;SDS011;23309;52.582;13.406;2022-11-20T05:41:06;12.93;;;8.60;;
37449;SDS011;23309;52.582;13.406;2022-11-20T05:43:41;10.88;;;8.30;;
37449;SDS011;23309;52.582;13.406;2022-11-20T05:46:12;12.95;;;8.85;;
37449;SDS011;23309;52.582;13.406;2022-11-20T05:48:40;11.40;;;7.88;;
37449;SDS011;23309;52.582;13.406;2022-11-20T05:51:08;11.65;;;8.13;;
37449;SDS011;23309;52.582;13.406;2022-11-20T05:53:37;11.25;;;8.60;;
37449;SDS011;23309;52.582;13.406;2022-11-20T05:56:03;13.15;;;8.82;;
37449;SDS011;23309;52.582;13.406;2022-11-20T05:58:32;15.35;;;8.45;;
37449;SDS011;23309;52.582;13.406;2022-11-20T06:01:05;11.27;;;8.18;;
37449;SDS011;23309;52.582;13.406;2022-11-20T06:03:33;15.73;;;9.32;;
37449;SDS011;23309;52.582;13.406;2022-11-20T06:05:59;12.18;;;8.40;;
37449;SDS011;23309;52.582;13.406;2022-11-20T06:08:28;13.77;;;9.05;;
37449;SDS011;23309;52.582;13.406;2022-11-20T06:10:54;12.30;;;8.50;;
37449;SDS011;23309;52.582;13.406;2022-11-20T06:13:21;11.55;;;8.43;;
37449;SDS011;23309;52.582;13.406;2022-11-20T06:15:50;11.02;;;8.55;;
37449;SDS011;23309;52.582;13.406;2022-11-20T06:18:19;10.70;;;8.38;;
37449;SDS011;23309;52.582;13.406;2022-11-20T06:20:45;11.02;;;8.48;;
37449;SDS011;23309;52.582;13.406;2022-11-20T06:23:12;12.20;;;8.50;;
37449;SDS011;23309;52.582;13.406;2022-11-20T06:25:38;10.00;;;7.88;;
37449;SDS011;23309;52.582;13.406;2022-11-20T06:28:05;12.27;;;7.82;;
37449;SDS011;23309;52.582;13.406;2022-11-20T06:30:32;11.55;;;8.95;;
37449;SDS011;23309;52.582;13.406;2022-11-20T06:32:58;10.68;;;7.75;;
37449;SDS011;23309;52.582;13.406;2022-11-20T06:35:27;13.15;;;9.18;;
37449;SDS011;23309;52.582;13.406;2022-11-20T06:37:53;11.85;;;9.38;;
37449;SDS011;23309;52.582;13.406;2022-11-20T06:40:20;12.20;;;9.30;;
37449;SDS011;23309;52.582;13.406;2022-11-20T06:42:46;10.57;;;8.35;;
37449;SDS011;23309;52.582;13.406;2022-11-20T06:45:12;10.73;;;8.45;;
37449;SDS011;23309;52.582;13.406;2022-11-20T06:47:39;13.93;;;8.83;;
37449;SDS011;23309;52.582;13.406;2022-11-20T06:50:07;12.00;;;8.55;;
37449;SDS011;23309;52.582;13.406;2022-11-20T06:52:37;12.30;;;8.77;;
37449;SDS011;23309;52.582;13.406;2022-11-20T06:55:03;12.35;;;8.55;;
37449;SDS011;23309;52.582;13.406;2022-11-20T06:57:30;10.15;;;8.18;;
37449;SDS011;23309;52.582;13.406;2022-11-20T06:59:56;13.07;;;8.17;;
37449;SDS011;23309;52.582;13.406;2022-11-20T07:02:25;11.40;;;8.60;;
37449;SDS011;23309;52.582;13.406;2022-11-20T07:04:51;12.85;;;8.75;;
37449;SDS011;23309;52.582;13.406;2022-11-20T07:07:17;11.77;;;8.63;;
37449;SDS011;23309;52.582;13.406;2022-11-20T07:09:46;11.53;;;8.70;;
37449;SDS011;23309;52.582;13.406;2022-11-20T07:12:12;12.23;;;8.50;;
37449;SDS011;23309;52.582;13.406;2022-11-20T07:14:38;11.30;;;8.67;;
37449;SDS011;23309;52.582;13.406;2022-11-20T07:17:04;12.50;;;9.10;;
37449;SDS011;23309;52.582;13.406;2022-11-20T07:19:31;11.75;;;8.35;;
37449;SDS011;23309;52.582;13.406;2022-11-20T07:21:57;13.87;;;9.30;;
37449;SDS011;23309;52.582;13.406;2022-11-20T07:24:23;10.80;;;8.70;;
37449;SDS011;23309;52.582;13.406;2022-11-20T07:26:51;13.10;;;8.97;;
37449;SDS011;23309;52.582;13.406;2022-11-20T07:29:17;10.67;;;8.47;;
37449;SDS011;23309;52.582;13.406;2022-11-20T07:31:43;11.17;;;8.50;;
37449;SDS011;23309;52.582;13.406;2022-11-20T07:34:09;9.27;;;7.40;;
37449;SDS011;23309;52.582;13.406;2022-11-20T07:36:36;13.77;;;8.33;;
37449;SDS011;23309;52.582;13.406;2022-11-20T07:39:02;15.98;;;8.18;;
37449;SDS011;23309;52.582;13.406;2022-11-20T07:41:28;12.10;;;8.40;;
37449;SDS011;23309;52.582;13.406;2022-11-20T07:43:57;10.23;;;8.07;;
37449;SDS011;23309;52.582;13.406;2022-11-20T07:46:23;12.23;;;9.20;;
37449;SDS011;23309;52.582;13.406;2022-11-20T07:48:49;11.90;;;8.77;;
37449;SDS011;23309;52.582;13.406;2022-11-20T07:51:15;13.13;;;9.30;;
37449;SDS011;23309;52.582;13.406;2022-11-20T07:53:41;13.70;;;10.07;;
37449;SDS011;23309;52.582;13.406;2022-11-20T07:56:08;15.10;;;10.13;;
37449;SDS011;23309;52.582;13.406;2022-11-20T07:58:34;13.23;;;9.57;;
37449;SDS011;23309;52.582;13.406;2022-11-20T08:01:05;12.93;;;9.70;;
37449;SDS011;23309;52.582;13.406;2022-11-20T08:03:32;12.88;;;9.25;;
37449;SDS011;23309;52.582;13.406;2022-11-20T08:05:59;14.83;;;9.73;;
37449;SDS011;23309;52.582;13.406;2022-11-20T08:08:25;15.00;;;9.50;;
37449;SDS011;23309;52.582;13.406;2022-11-20T08:10:52;11.97;;;9.47;;
37449;SDS011;23309;52.582;13.406;2022-11-20T08:13:18;15.40;;;10.40;;
37449;SDS011;23309;52.582;13.406;2022-11-20T08:15:47;15.50;;;10.38;;
37449;SDS011;23309;52.582;13.406;2022-11-20T08:18:17;13.57;;;10.27;;
37449;SDS011;23309;52.582;13.406;2022-11-20T08:20:44;13.13;;;10.10;;
37449;SDS011;23309;52.582;13.406;2022-11-20T08:23:10;16.30;;;9.73;;
37449;SDS011;23309;52.582;13.406;2022-11-20T08:25:37;13.90;;;10.00;;
37449;SDS011;23309;52.582;13.406;2022-11-20T08:28:04;16.03;;;10.57;;
37449;SDS011;23309;52.582;13.406;2022-11-20T08:30:31;18.40;;;10.63;;
37449;SDS011;23309;52.582;13.406;2022-11-20T08:33:00;13.43;;;10.53;;
37449;SDS011;23309;52.582;13.406;2022-11-20T08:35:30;15.00;;;11.10;;
37449;SDS011;23309;52.582;13.406;2022-11-20T08:37:58;14.70;;;10.40;;
37449;SDS011;23309;52.582;13.406;2022-11-20T08:40:24;17.70;;;11.30;;
37449;SDS011;23309;52.582;13.406;2022-11-20T08:42:50;14.37;;;10.57;;
37449;SDS011;23309;52.582;13.406;2022-11-20T08:45:17;13.60;;;10.07;;
37449;SDS011;23309;52.582;13.406;2022-11-20T08:47:44;14.43;;;9.85;;
37449;SDS011;23309;52.582;13.406;2022-11-20T08:50:11;15.10;;;11.13;;
37449;SDS011;23309;52.582;13.406;2022-11-20T08:52:42;15.63;;;10.00;;
37449;SDS011;23309;52.582;13.406;2022-11-20T08:55:09;14.17;;;9.73;;
37449;SDS011;23309;52.582;13.406;2022-11-20T08:57:36;13.40;;;10.10;;
37449;SDS011;23309;52.582;13.406;2022-11-20T09:00:04;11.60;;;9.33;;
37449;SDS011;23309;52.582;13.406;2022-11-20T09:02:32;13.85;;;10.60;;
37449;SDS011;23309;52.582;13.406;2022-11-20T09:04:58;13.37;;;8.93;;
37449;SDS011;23309;52.582;13.406;2022-11-20T09:07:25;13.90;;;9.87;;
37449;SDS011;23309;52.582;13.406;2022-11-20T09:09:53;12.50;;;9.60;;
37449;SDS011;23309;52.582;13.406;2022-11-20T09:12:19;11.90;;;9.47;;
37449;SDS011;23309;52.582;13.406;2022-11-20T09:14:45;18.40;;;8.70;;
37449;SDS011;23309;52.582;13.406;2022-11-20T09:17:14;15.90;;;10.60;;
37449;SDS011;23309;52.582;13.406;2022-11-20T09:19:40;16.07;;;10.80;;
37449;SDS011;23309;52.582;13.406;2022-11-20T09:22:06;18.73;;;12.07;;
37449;SDS011;23309;52.582;13.406;2022-11-20T09:24:32;13.90;;;10.50;;
37449;SDS011;23309;52.582;13.406;2022-11-20T09:27:03;17.73;;;11.60;;
37449;SDS011;23309;52.582;13.406;2022-11-20T09:29:30;16.03;;;9.97;;
37449;SDS011;23309;52.582;13.406;2022-11-20T09:31:56;13.47;;;9.83;;
37449;SDS011;23309;52.582;13.406;2022-11-20T09:34:22;13.53;;;9.43;;
37449;SDS011;23309;52.582;13.406;2022-11-20T09:36:48;14.13;;;10.13;;
37449;SDS011;23309;52.582;13.406;2022-11-20T09:39:14;20.90;;;8.87;;
37449;SDS011;23309;52.582;13.406;2022-11-20T09:41:56;12.40;;;9.50;;
37449;SDS011;23309;52.582;13.406;2022-11-20T09:44:53;14.23;;;9.80;;
37449;SDS011;23309;52.582;13.406;2022-11-20T09:47:38;14.03;;;9.83;;
37449;SDS011;23309;52.582;13.406;2022-11-20T09:50:26;13.73;;;9.50;;
37449;SDS011;23309;52.582;13.406;2022-11-20T09:53:02;14.47;;;9.97;;
37449;SDS011;23309;52.582;13.406;2022-11-20T09:55:37;12.70;;;9.67;;
37449;SDS011;23309;52.582;13.406;2022-11-20T09:58:12;12.43;;;9.27;;
37449;SDS011;23309;52.582;13.406;2022-11-20T10:00:45;13.03;;;9.50;;
37449;SDS011;23309;52.582;13.406;2022-11-20T10:03:13;17.17;;;10.83;;
37449;SDS011;23309;52.582;13.406;2022-11-20T10:05:45;14.93;;;9.90;;
37449;SDS011;23309;52.582;13.406;2022-11-20T10:08:16;13.20;;;9.97;;
37449;SDS011;23309;52.582;13.406;2022-11-20T10:10:49;14.57;;;9.20;;
37449;SDS011;23309;52.582;13.406;2022-11-20T10:13:34;14.67;;;9.50;;
37449;SDS011;23309;52.582;13.406;2022-11-20T10:16:14;15.13;;;9.47;;
37449;SDS011;23309;52.582;13.406;2022-11-20T10:18:54;15.77;;;9.90;;
37449;SDS011;23309;52.582;13.406;2022-11-20T10:21:37;12.30;;;9.60;;
37449;SDS011;23309;52.582;13.406;2022-11-20T10:24:23;14.00;;;10.13;;
37449;SDS011;23309;52.582;13.406;2022-11-20T10:27:13;15.53;;;9.93;;
37449;SDS011;23309;52.582;13.406;2022-11-20T10:30:03;16.00;;;9.47;;
37449;SDS011;23309;52.582;13.406;2022-11-20T10:32:36;12.57;;;9.47;;
37449;SDS011;23309;52.582;13.406;2022-11-20T10:35:16;12.37;;;9.10;;
37449;SDS011;23309;52.582;13.406;2022-11-20T10:37:48;14.53;;;9.57;;
37449;SDS011;23309;52.582;13.406;2022-11-20T10:40:23;14.50;;;9.27;;
37449;SDS011;23309;52.582;13.406;2022-11-20T10:42:59;12.97;;;9.70;;
37449;SDS011;23309;52.582;13.406;2022-11-20T10:45:43;12.67;;;9.53;;
37449;SDS011;23309;52.582;13.406;2022-11-20T10:48:16;17.07;;;11.50;;
37449;SDS011;23309;52.582;13.406;2022-11-20T10:50:57;17.40;;;11.10;;
37449;SDS011;23309;52.582;13.406;2022-11-20T10:53:40;12.10;;;8.60;;
37449;SDS011;23309;52.582;13.406;2022-11-20T10:56:17;12.30;;;8.70;;
37449;SDS011;23309;52.582;13.406;2022-11-20T10:58:51;13.70;;;8.70;;
37449;SDS011;23309;52.582;13.406;2022-11-20T11:01:53;13.07;;;8.43;;
37449;SDS011;23309;52.582;13.406;2022-11-20T11:04:26;11.57;;;8.00;;
37449;SDS011;23309;52.582;13.406;2022-11-20T11:07:04;11.43;;;8.20;;
37449;SDS011;23309;52.582;13.406;2022-11-20T11:09:38;10.10;;;7.53;;
37449;SDS011;23309;52.582;13.406;2022-11-20T11:12:10;12.87;;;9.43;;
37449;SDS011;23309;52.582;13.406;2022-11-20T11:14:46;10.50;;;8.20;;
37449;SDS011;23309;52.582;13.406;2022-11-20T11:17:23;13.10;;;8.13;;
37449;SDS011;23309;52.582;13.406;2022-11-20T11:19:58;12.40;;;7.83;;
37449;SDS011;23309;52.582;13.406;2022-11-20T11:22:26;9.57;;;7.10;;
37449;SDS011;23309;52.582;13.406;2022-11-20T11:24:56;9.77;;;7.57;;
37449;SDS011;23309;52.582;13.406;2022-11-20T11:27:22;10.67;;;7.33;;
37449;SDS011;23309;52.582;13.406;2022-11-20T11:29:48;9.83;;;7.57;;
37449;SDS011;23309;52.582;13.406;2022-11-20T11:32:15;11.77;;;8.20;;
37449;SDS011;23309;52.582;13.406;2022-11-20T11:34:57;13.10;;;8.47;;
37449;SDS011;23309;52.582;13.406;2022-11-20T11:37:24;7.87;;;6.50;;
37449;SDS011;23309;52.582;13.406;2022-11-20T11:39:58;12.83;;;8.00;;
37449;SDS011;23309;52.582;13.406;2022-11-20T11:42:25;10.27;;;7.50;;
37449;SDS011;23309;52.582;13.406;2022-11-20T11:44:52;9.90;;;7.37;;
37449;SDS011;23309;52.582;13.406;2022-11-20T11:47:22;10.27;;;7.70;;
37449;SDS011;23309;52.582;13.406;2022-11-20T11:50:07;10.20;;;7.60;;
37449;SDS011;23309;52.582;13.406;2022-11-20T11:52:46;8.80;;;6.97;;
37449;SDS011;23309;52.582;13.406;2022-11-20T11:55:26;9.93;;;7.20;;
37449;SDS011;23309;52.582;13.406;2022-11-20T11:58:01;12.13;;;7.10;;
37449;SDS011;23309;52.582;13.406;2022-11-20T12:00:45;11.10;;;7.80;;
37449;SDS011;23309;52.582;13.406;2022-11-20T12:03:21;14.40;;;7.00;;
37449;SDS011;23309;52.582;13.406;2022-11-20T12:05:59;8.57;;;6.47;;
37449;SDS011;23309;52.582;13.406;2022-11-20T12:08:32;9.53;;;7.40;;
37449;SDS011;23309;52.582;13.406;2022-11-20T12:11:11;9.63;;;6.60;;
37449;SDS011;23309;52.582;13.406;2022-11-20T12:13:42;9.23;;;6.90;;
37449;SDS011;23309;52.582;13.406;2022-11-20T12:16:18;7.87;;;6.57;;
37449;SDS011;23309;52.582;13.406;2022-11-20T12:18:45;17.37;;;8.30;;
37449;SDS011;23309;52.582;13.406;2022-11-20T12:21:24;10.13;;;7.47;;
37449;SDS011;23309;52.582;13.406;2022-11-20T12:24:06;10.13;;;7.30;;
37449;SDS011;23309;52.582;13.406;2022-11-20T12:27:02;9.83;;;7.20;;
37449;SDS011;23309;52.582;13.406;2022-11-20T12:29:51;15.53;;;7.20;;
37449;SDS011;23309;52.582;13.406;2022-11-20T12:32:39;10.10;;;7.60;;
37449;SDS011;23309;52.582;13.406;2022-11-20T12:35:47;11.37;;;7.47;;
37449;SDS011;23309;52.582;13.406;2022-11-20T12:41:42;9.23;;;6.73;;
37449;SDS011;23309;52.582;13.406;2022-11-20T12:44:21;9.00;;;6.63;;
37449;SDS011;23309;52.582;13.406;2022-11-20T12:47:09;9.37;;;6.80;;
37449;SDS011;23309;52.582;13.406;2022-11-20T12:49:47;13.40;;;7.80;;
37449;SDS011;23309;52.582;13.406;2022-11-20T12:52:27;7.73;;;6.43;;
37449;SDS011;23309;52.582;13.406;2022-11-20T12:55:20;9.10;;;6.70;;
37449;SDS011;23309;52.582;13.406;2022-11-20T12:57:58;10.10;;;7.03;;
37449;SDS011;23309;52.582;13.406;2022-11-20T13:00:36;9.03;;;6.20;;
37449;SDS011;23309;52.582;13.406;2022-11-20T13:03:29;8.37;;;6.60;;
37449;SDS011;23309;52.582;13.406;2022-11-20T13:06:13;8.57;;;6.57;;
37449;SDS011;23309;52.582;13.406;2022-11-20T13:08:42;6.90;;;5.90;;
37449;SDS011;23309;52.582;13.406;2022-11-20T13:11:17;6.63;;;5.73;;
37449;SDS011;23309;52.582;13.406;2022-11-20T13:13:59;6.87;;;5.67;;
37449;SDS011;23309;52.582;13.406;2022-11-20T13:16:41;7.43;;;5.73;;
37449;SDS011;23309;52.582;13.406;2022-11-20T13:19:15;8.63;;;5.87;;
37449;SDS011;23309;52.582;13.406;2022-11-20T13:21:44;10.63;;;6.20;;
37449;SDS011;23309;52.582;13.406;2022-11-20T13:24:20;8.00;;;5.80;;
37449;SDS011;23309;52.582;13.406;2022-11-20T13:27:05;10.83;;;6.53;;
37449;SDS011;23309;52.582;13.406;2022-11-20T13:29:44;7.60;;;6.40;;
37449;SDS011;23309;52.582;13.406;2022-11-20T13:32:23;8.70;;;6.03;;
37449;SDS011;23309;52.582;13.406;2022-11-20T13:34:53;8.90;;;6.17;;
37449;SDS011;23309;52.582;13.406;2022-11-20T13:37:24;7.43;;;6.23;;
37449;SDS011;23309;52.582;13.406;2022-11-20T13:40:04;7.13;;;5.90;;
37449;SDS011;23309;52.582;13.406;2022-11-20T13:42:51;13.30;;;6.20;;
37449;SDS011;23309;52.582;13.406;2022-11-20T13:45:27;9.07;;;6.47;;
37449;SDS011;23309;52.582;13.406;2022-11-20T13:47:56;8.20;;;6.30;;
37449;SDS011;23309;52.582;13.406;2022-11-20T13:50:38;8.17;;;6.40;;
37449;SDS011;23309;52.582;13.406;2022-11-20T13:53:15;6.43;;;5.83;;
37449;SDS011;23309;52.582;13.406;2022-11-20T13:55:59;11.10;;;6.80;;
37449;SDS011;23309;52.582;13.406;2022-11-20T13:58:47;8.80;;;6.33;;
37449;SDS011;23309;52.582;13.406;2022-11-20T14:01:24;10.60;;;6.70;;
37449;SDS011;23309;52.582;13.406;2022-11-20T14:03:54;7.97;;;6.27;;
37449;SDS011;23309;52.582;13.406;2022-11-20T14:06:24;9.83;;;7.20;;
37449;SDS011;23309;52.582;13.406;2022-11-20T14:08:53;9.10;;;6.90;;
37449;SDS011;23309;52.582;13.406;2022-11-20T14:11:20;8.97;;;6.43;;
37449;SDS011;23309;52.582;13.406;2022-11-20T14:14:00;11.47;;;6.60;;
37449;SDS011;23309;52.582;13.406;2022-11-20T14:16:29;8.00;;;6.33;;
37449;SDS011;23309;52.582;13.406;2022-11-20T14:18:58;8.23;;;6.60;;
37449;SDS011;23309;52.582;13.406;2022-11-20T14:21:52;10.37;;;6.60;;
37449;SDS011;23309;52.582;13.406;2022-11-20T14:24:20;7.80;;;6.70;;
37449;SDS011;23309;52.582;13.406;2022-11-20T14:26:48;9.03;;;6.47;;
37449;SDS011;23309;52.582;13.406;2022-11-20T14:29:20;9.43;;;6.60;;
37449;SDS011;23309;52.582;13.406;2022-11-20T14:31:53;8.63;;;6.60;;
37449;SDS011;23309;52.582;13.406;2022-11-20T14:34:22;9.53;;;6.90;;
37449;SDS011;23309;52.582;13.406;2022-11-20T14:36:52;8.60;;;6.67;;
37449;SDS011;23309;52.582;13.406;2022-11-20T14:39:25;10.00;;;6.60;;
37449;SDS011;23309;52.582;13.406;2022-11-20T14:41:56;8.90;;;6.83;;
37449;SDS011;23309;52.582;13.406;2022-11-20T14:44:25;8.20;;;6.80;;
37449;SDS011;23309;52.582;13.406;2022-11-20T14:46:54;8.13;;;6.30;;
37449;SDS011;23309;52.582;13.406;2022-11-20T14:49:21;9.37;;;6.60;;
37449;SDS011;23309;52.582;13.406;2022-11-20T14:51:57;10.73;;;6.77;;